Terminal Aerodrome Forecast
Issued by NWS Boise, ID

Home | Current Version | Previous Version | Text Only | Print | Product List | Glossary On
Versions: 1 2 3 4 5 6 7 8 9 10 11 12 13 14 15 16 17 18 19 20 21
000
FTUS45 KBOI 230524
TAFBNO
TAF
KBNO 230524Z 2306/2406 05010KT P6SM VCTS SCT060CB BKN100
     FM230900 30006KT P6SM BKN100
     FM231800 18006KT P6SM SCT060 BKN150 PROB30 2318/2324 VRB15G25KT
      5SM TSRA OVC050CB
     FM240000 24008KT P6SM SCT080 OVC150 PROB30 2400/2404 VRB15G25KT
      5SM TSRA OVC050CB=

USA.gov is the U.S. government's official web portal to all federal, state and local government web resources and services.